sensor_id;sensor_type;location;lat;lon;timestamp;pressure;altitude;pressure_sealevel;temperature;humidity
55460;BME280;41326;45.302;-122.946;2023-04-07T00:00:51;100230.19;;;18.27;55.60
55460;BME280;41326;45.302;-122.946;2023-04-07T00:03:22;100227.22;;;18.23;55.59
55460;BME280;41326;45.302;-122.946;2023-04-07T00:05:52;100230.19;;;18.26;55.47
55460;BME280;41326;45.302;-122.946;2023-04-07T00:08:22;100234.71;;;18.36;55.28
55460;BME280;41326;45.302;-122.946;2023-04-07T00:10:52;100223.42;;;18.50;54.96
55460;BME280;41326;45.302;-122.946;2023-04-07T00:13:23;100221.87;;;18.53;55.49
55460;BME280;41326;45.302;-122.946;2023-04-07T00:15:53;100216.41;;;18.54;55.75
55460;BME280;41326;45.302;-122.946;2023-04-07T00:18:23;100217.91;;;18.57;55.75
55460;BME280;41326;45.302;-122.946;2023-04-07T00:20:54;100217.24;;;18.55;55.79
55460;BME280;41326;45.302;-122.946;2023-04-07T00:23:24;100216.56;;;18.64;55.60
55460;BME280;41326;45.302;-122.946;2023-04-07T00:25:54;100211.24;;;18.85;55.02
55460;BME280;41326;45.302;-122.946;2023-04-07T00:28:25;100207.01;;;18.88;54.88
55460;BME280;41326;45.302;-122.946;2023-04-07T00:30:55;100207.86;;;18.81;55.11
55460;BME280;41326;45.302;-122.946;2023-04-07T00:33:25;100207.36;;;18.78;55.96
55460;BME280;41326;45.302;-122.946;2023-04-07T00:35:56;100207.68;;;18.73;56.32
55460;BME280;41326;45.302;-122.946;2023-04-07T00:38:26;100209.71;;;18.73;56.36
55460;BME280;41326;45.302;-122.946;2023-04-07T00:41:01;100208.49;;;18.67;56.45
55460;BME280;41326;45.302;-122.946;2023-04-07T00:43:27;100208.31;;;18.58;56.95
55460;BME280;41326;45.302;-122.946;2023-04-07T00:45:57;100210.52;;;18.53;57.40
55460;BME280;41326;45.302;-122.946;2023-04-07T00:48:28;100211.07;;;18.51;57.60
55460;BME280;41326;45.302;-122.946;2023-04-07T00:50:58;100206.75;;;18.48;57.92
55460;BME280;41326;45.302;-122.946;2023-04-07T00:53:37;100206.87;;;18.42;58.07
55460;BME280;41326;45.302;-122.946;2023-04-07T00:55:59;100207.34;;;18.40;58.09
55460;BME280;41326;45.302;-122.946;2023-04-07T00:58:29;100210.46;;;18.36;57.98
55460;BME280;41326;45.302;-122.946;2023-04-07T01:01:06;100210.53;;;18.33;57.83
55460;BME280;41326;45.302;-122.946;2023-04-07T01:03:34;100210.72;;;18.30;57.77
55460;BME280;41326;45.302;-122.946;2023-04-07T01:06:00;100211.53;;;18.39;57.29
55460;BME280;41326;45.302;-122.946;2023-04-07T01:08:37;100209.78;;;18.53;56.84
55460;BME280;41326;45.302;-122.946;2023-04-07T01:11:05;100210.37;;;18.65;56.42
55460;BME280;41326;45.302;-122.946;2023-04-07T01:13:33;100212.78;;;18.68;56.28
55460;BME280;41326;45.302;-122.946;2023-04-07T01:16:03;100218.44;;;18.69;56.35
55460;BME280;41326;45.302;-122.946;2023-04-07T01:18:34;100223.18;;;18.67;56.21
55460;BME280;41326;45.302;-122.946;2023-04-07T01:21:08;100222.09;;;18.63;56.32
55460;BME280;41326;45.302;-122.946;2023-04-07T01:23:40;100224.12;;;18.61;56.33
55460;BME280;41326;45.302;-122.946;2023-04-07T01:31:05;100229.37;;;18.50;56.69
55460;BME280;41326;45.302;-122.946;2023-04-07T01:33:36;100228.52;;;18.47;56.75
55460;BME280;41326;45.302;-122.946;2023-04-07T01:36:07;100231.84;;;18.42;57.03
55460;BME280;41326;45.302;-122.946;2023-04-07T01:38:34;100233.75;;;18.42;56.93
55460;BME280;41326;45.302;-122.946;2023-04-07T01:41:06;100233.68;;;18.40;56.95
55460;BME280;41326;45.302;-122.946;2023-04-07T01:43:35;100231.09;;;18.42;56.84
55460;BME280;41326;45.302;-122.946;2023-04-07T01:46:06;100234.20;;;18.44;56.84
55460;BME280;41326;45.302;-122.946;2023-04-07T01:48:36;100232.55;;;18.42;56.91
55460;BME280;41326;45.302;-122.946;2023-04-07T01:51:05;100231.35;;;18.40;56.88
55460;BME280;41326;45.302;-122.946;2023-04-07T01:53:35;100232.48;;;18.37;56.97
55460;BME280;41326;45.302;-122.946;2023-04-07T01:56:06;100237.51;;;18.37;57.02
55460;BME280;41326;45.302;-122.946;2023-04-07T01:58:36;100238.96;;;18.35;57.00
55460;BME280;41326;45.302;-122.946;2023-04-07T02:01:06;100243.47;;;18.33;56.95
55460;BME280;41326;45.302;-122.946;2023-04-07T02:03:43;100243.84;;;18.32;56.96
55460;BME280;41326;45.302;-122.946;2023-04-07T02:06:10;100248.39;;;18.29;57.17
55460;BME280;41326;45.302;-122.946;2023-04-07T02:08:38;100252.02;;;18.31;57.09
55460;BME280;41326;45.302;-122.946;2023-04-07T02:11:08;100250.25;;;18.34;56.92
55460;BME280;41326;45.302;-122.946;2023-04-07T02:13:39;100252.50;;;18.43;56.66
55460;BME280;41326;45.302;-122.946;2023-04-07T02:16:11;100255.82;;;18.59;56.24
55460;BME280;41326;45.302;-122.946;2023-04-07T02:18:40;100257.40;;;18.65;56.08
55460;BME280;41326;45.302;-122.946;2023-04-07T02:21:12;100260.18;;;18.65;56.01
55460;BME280;41326;45.302;-122.946;2023-04-07T02:23:41;100260.99;;;18.66;56.02
55460;BME280;41326;45.302;-122.946;2023-04-07T02:26:12;100265.63;;;18.66;56.01
55460;BME280;41326;45.302;-122.946;2023-04-07T02:28:41;100267.13;;;18.63;56.18
55460;BME280;41326;45.302;-122.946;2023-04-07T02:31:12;100268.04;;;18.62;56.21
55460;BME280;41326;45.302;-122.946;2023-04-07T02:33:42;100266.15;;;18.56;56.38
55460;BME280;41326;45.302;-122.946;2023-04-07T02:36:15;100265.40;;;18.56;56.39
55460;BME280;41326;45.302;-122.946;2023-04-07T02:38:43;100263.38;;;18.52;56.44
55460;BME280;41326;45.302;-122.946;2023-04-07T02:41:13;100262.89;;;18.54;56.28
55460;BME280;41326;45.302;-122.946;2023-04-07T02:43:43;100267.24;;;18.50;56.44
55460;BME280;41326;45.302;-122.946;2023-04-07T02:46:14;100264.46;;;18.49;56.48
55460;BME280;41326;45.302;-122.946;2023-04-07T02:48:44;100263.86;;;18.46;56.56
55460;BME280;41326;45.302;-122.946;2023-04-07T02:51:14;100266.24;;;18.45;56.66
55460;BME280;41326;45.302;-122.946;2023-04-07T02:53:45;100263.08;;;18.43;56.73
55460;BME280;41326;45.302;-122.946;2023-04-07T02:56:16;100266.68;;;18.43;56.81
55460;BME280;41326;45.302;-122.946;2023-04-07T02:59:09;100267.41;;;18.44;56.68
55460;BME280;41326;45.302;-122.946;2023-04-07T03:01:25;100265.25;;;18.41;56.72
55460;BME280;41326;45.302;-122.946;2023-04-07T03:03:46;100270.63;;;18.38;56.82
55460;BME280;41326;45.302;-122.946;2023-04-07T03:06:17;100269.35;;;18.39;56.87
55460;BME280;41326;45.302;-122.946;2023-04-07T03:08:47;100265.30;;;18.38;56.87
55460;BME280;41326;45.302;-122.946;2023-04-07T03:11:18;100271.81;;;18.37;56.96
55460;BME280;41326;45.302;-122.946;2023-04-07T03:13:48;100274.01;;;18.34;57.06
55460;BME280;41326;45.302;-122.946;2023-04-07T03:16:18;100277.77;;;18.33;57.14
55460;BME280;41326;45.302;-122.946;2023-04-07T03:18:48;100280.58;;;18.35;57.00
55460;BME280;41326;45.302;-122.946;2023-04-07T03:21:19;100281.63;;;18.33;57.05
55460;BME280;41326;45.302;-122.946;2023-04-07T03:23:49;100286.83;;;18.31;57.18
55460;BME280;41326;45.302;-122.946;2023-04-07T03:26:19;100291.49;;;18.32;57.14
55460;BME280;41326;45.302;-122.946;2023-04-07T03:28:52;100293.54;;;18.30;57.31
55460;BME280;41326;45.302;-122.946;2023-04-07T03:31:20;100294.15;;;18.30;57.32
55460;BME280;41326;45.302;-122.946;2023-04-07T03:33:52;100294.47;;;18.26;57.49
55460;BME280;41326;45.302;-122.946;2023-04-07T03:36:22;100295.91;;;18.25;57.52
55460;BME280;41326;45.302;-122.946;2023-04-07T03:39:02;100299.96;;;18.27;57.41
55460;BME280;41326;45.302;-122.946;2023-04-07T03:41:22;100299.62;;;18.24;57.42
55460;BME280;41326;45.302;-122.946;2023-04-07T03:43:52;100302.78;;;18.22;57.46
55460;BME280;41326;45.302;-122.946;2023-04-07T03:46:23;100305.95;;;18.23;57.42
55460;BME280;41326;45.302;-122.946;2023-04-07T03:48:52;100305.38;;;18.22;57.51
55460;BME280;41326;45.302;-122.946;2023-04-07T03:51:23;100311.59;;;18.20;57.49
55460;BME280;41326;45.302;-122.946;2023-04-07T03:53:53;100313.67;;;18.27;57.43
55460;BME280;41326;45.302;-122.946;2023-04-07T03:56:24;100316.88;;;18.44;56.95
55460;BME280;41326;45.302;-122.946;2023-04-07T03:58:54;100319.53;;;18.52;56.68
55460;BME280;41326;45.302;-122.946;2023-04-07T04:01:26;100315.70;;;18.55;56.57
55460;BME280;41326;45.302;-122.946;2023-04-07T04:03:54;100324.34;;;18.56;56.49
55460;BME280;41326;45.302;-122.946;2023-04-07T04:06:25;100324.14;;;18.58;56.48
55460;BME280;41326;45.302;-122.946;2023-04-07T04:08:55;100322.01;;;18.56;56.47
55460;BME280;41326;45.302;-122.946;2023-04-07T04:11:26;100324.65;;;18.54;56.42
55460;BME280;41326;45.302;-122.946;2023-04-07T04:13:56;100328.05;;;18.48;56.63
55460;BME280;41326;45.302;-122.946;2023-04-07T04:16:26;100332.60;;;18.45;56.73
55460;BME280;41326;45.302;-122.946;2023-04-07T04:18:57;100330.01;;;18.42;56.80
55460;BME280;41326;45.302;-122.946;2023-04-07T04:21:29;100331.30;;;18.42;56.66
55460;BME280;41326;45.302;-122.946;2023-04-07T04:23:57;100334.40;;;18.38;56.80
55460;BME280;41326;45.302;-122.946;2023-04-07T04:26:28;100333.78;;;18.33;56.91
55460;BME280;41326;45.302;-122.946;2023-04-07T04:28:58;100334.03;;;18.32;56.90
55460;BME280;41326;45.302;-122.946;2023-04-07T04:32:36;100339.11;;;18.31;56.90
55460;BME280;41326;45.302;-122.946;2023-04-07T04:35:07;100339.17;;;18.27;57.00
55460;BME280;41326;45.302;-122.946;2023-04-07T04:37:37;100341.09;;;18.27;56.87
55460;BME280;41326;45.302;-122.946;2023-04-07T04:40:07;100341.82;;;18.27;56.91
55460;BME280;41326;45.302;-122.946;2023-04-07T04:42:39;100343.55;;;18.30;56.78
55460;BME280;41326;45.302;-122.946;2023-04-07T04:47:39;100344.69;;;18.22;56.98
55460;BME280;41326;45.302;-122.946;2023-04-07T04:50:10;100347.81;;;18.21;56.94
55460;BME280;41326;45.302;-122.946;2023-04-07T04:52:39;100345.56;;;18.20;57.00
55460;BME280;41326;45.302;-122.946;2023-04-07T04:55:10;100347.88;;;18.15;57.17
55460;BME280;41326;45.302;-122.946;2023-04-07T04:57:40;100348.95;;;18.17;56.90
55460;BME280;41326;45.302;-122.946;2023-04-07T05:00:12;100352.15;;;18.15;57.16
55460;BME280;41326;45.302;-122.946;2023-04-07T05:02:42;100351.21;;;18.12;57.26
55460;BME280;41326;45.302;-122.946;2023-04-07T05:05:11;100353.49;;;18.11;57.36
55460;BME280;41326;45.302;-122.946;2023-04-07T05:07:41;100353.52;;;18.10;57.37
55460;BME280;41326;45.302;-122.946;2023-04-07T05:10:13;100353.78;;;18.07;57.50
55460;BME280;41326;45.302;-122.946;2023-04-07T05:12:43;100356.46;;;18.09;57.44
55460;BME280;41326;45.302;-122.946;2023-04-07T05:15:13;100358.31;;;18.09;57.51
55460;BME280;41326;45.302;-122.946;2023-04-07T05:17:43;100358.08;;;18.08;57.52
55460;BME280;41326;45.302;-122.946;2023-04-07T05:20:15;100359.51;;;18.10;57.57
55460;BME280;41326;45.302;-122.946;2023-04-07T05:22:44;100362.63;;;18.14;57.59
55460;BME280;41326;45.302;-122.946;2023-04-07T05:25:15;100366.52;;;18.07;57.93
55460;BME280;41326;45.302;-122.946;2023-04-07T05:27:44;100370.04;;;18.09;57.89
55460;BME280;41326;45.302;-122.946;2023-04-07T05:30:15;100373.65;;;18.10;57.94
55460;BME280;41326;45.302;-122.946;2023-04-07T05:32:45;100376.20;;;18.09;58.01
55460;BME280;41326;45.302;-122.946;2023-04-07T05:35:15;100375.34;;;18.09;58.10
55460;BME280;41326;45.302;-122.946;2023-04-07T05:37:46;100376.67;;;18.09;58.16
55460;BME280;41326;45.302;-122.946;2023-04-07T05:40:16;100380.48;;;18.06;58.44
55460;BME280;41326;45.302;-122.946;2023-04-07T05:42:47;100375.93;;;18.08;58.68
55460;BME280;41326;45.302;-122.946;2023-04-07T05:45:17;100380.24;;;18.05;58.89
55460;BME280;41326;45.302;-122.946;2023-04-07T05:47:47;100376.21;;;18.05;58.89
55460;BME280;41326;45.302;-122.946;2023-04-07T05:50:17;100374.98;;;18.03;59.01
55460;BME280;41326;45.302;-122.946;2023-04-07T05:52:48;100379.53;;;18.02;59.17
55460;BME280;41326;45.302;-122.946;2023-04-07T05:55:18;100382.21;;;18.03;59.19
55460;BME280;41326;45.302;-122.946;2023-04-07T05:57:49;100381.92;;;18.03;59.19
55460;BME280;41326;45.302;-122.946;2023-04-07T06:00:20;100382.17;;;17.99;59.34
55460;BME280;41326;45.302;-122.946;2023-04-07T06:02:49;100385.65;;;17.98;59.59
55460;BME280;41326;45.302;-122.946;2023-04-07T06:05:20;100388.56;;;17.98;59.60
55460;BME280;41326;45.302;-122.946;2023-04-07T06:07:50;100389.07;;;17.97;59.59
55460;BME280;41326;45.302;-122.946;2023-04-07T06:10:20;100383.85;;;17.97;59.64
55460;BME280;41326;45.302;-122.946;2023-04-07T06:12:51;100387.16;;;17.94;59.80
55460;BME280;41326;45.302;-122.946;2023-04-07T06:15:21;100389.97;;;17.98;59.77
55460;BME280;41326;45.302;-122.946;2023-04-07T06:17:51;100392.49;;;17.91;60.06
55460;BME280;41326;45.302;-122.946;2023-04-07T06:20:21;100394.54;;;17.93;60.05
55460;BME280;41326;45.302;-122.946;2023-04-07T06:22:52;100396.28;;;17.92;60.16
55460;BME280;41326;45.302;-122.946;2023-04-07T06:25:22;100399.27;;;17.92;60.13
55460;BME280;41326;45.302;-122.946;2023-04-07T06:27:53;100399.87;;;17.90;60.28
55460;BME280;41326;45.302;-122.946;2023-04-07T06:30:23;100401.20;;;17.89;60.24
55460;BME280;41326;45.302;-122.946;2023-04-07T06:32:53;100403.95;;;17.90;60.24
55460;BME280;41326;45.302;-122.946;2023-04-07T06:35:24;100403.44;;;17.87;60.36
55460;BME280;41326;45.302;-122.946;2023-04-07T06:37:54;100409.73;;;17.83;60.45
55460;BME280;41326;45.302;-122.946;2023-04-07T06:40:24;100409.45;;;17.86;60.40
55460;BME280;41326;45.302;-122.946;2023-04-07T06:42:55;100412.12;;;17.84;60.53
55460;BME280;41326;45.302;-122.946;2023-04-07T06:45:25;100417.76;;;17.82;60.55
55460;BME280;41326;45.302;-122.946;2023-04-07T06:47:55;100422.81;;;17.83;60.51
55460;BME280;41326;45.302;-122.946;2023-04-07T06:50:25;100423.46;;;17.84;60.46
55460;BME280;41326;45.302;-122.946;2023-04-07T06:52:56;100424.60;;;17.84;60.38
55460;BME280;41326;45.302;-122.946;2023-04-07T06:55:26;100424.85;;;17.83;60.48
55460;BME280;41326;45.302;-122.946;2023-04-07T06:57:56;100430.61;;;17.81;60.48
55460;BME280;41326;45.302;-122.946;2023-04-07T07:00:27;100430.01;;;17.78;60.66
55460;BME280;41326;45.302;-122.946;2023-04-07T07:02:57;100432.07;;;17.78;60.71
55460;BME280;41326;45.302;-122.946;2023-04-07T07:05:27;100431.03;;;17.75;60.94
55460;BME280;41326;45.302;-122.946;2023-04-07T07:07:57;100430.64;;;17.78;60.84
55460;BME280;41326;45.302;-122.946;2023-04-07T07:10:27;100431.28;;;17.75;60.90
55460;BME280;41326;45.302;-122.946;2023-04-07T07:12:57;100431.43;;;17.76;60.86
55460;BME280;41326;45.302;-122.946;2023-04-07T07:15:28;100434.22;;;17.74;61.03
55460;BME280;41326;45.302;-122.946;2023-04-07T07:17:59;100437.44;;;17.72;60.96
55460;BME280;41326;45.302;-122.946;2023-04-07T07:20:29;100437.97;;;17.71;61.01
55460;BME280;41326;45.302;-122.946;2023-04-07T07:23:00;100437.26;;;17.68;61.18
55460;BME280;41326;45.302;-122.946;2023-04-07T07:25:30;100434.66;;;17.70;61.12
55460;BME280;41326;45.302;-122.946;2023-04-07T07:28:01;100436.26;;;17.72;61.12
55460;BME280;41326;45.302;-122.946;2023-04-07T07:30:31;100433.04;;;17.73;61.15
55460;BME280;41326;45.302;-122.946;2023-04-07T07:33:01;100434.72;;;17.71;61.24
55460;BME280;41326;45.302;-122.946;2023-04-07T07:35:32;100432.01;;;17.71;61.23
55460;BME280;41326;45.302;-122.946;2023-04-07T07:38:02;100431.60;;;17.70;61.17
55460;BME280;41326;45.302;-122.946;2023-04-07T07:40:32;100432.94;;;17.70;61.06
55460;BME280;41326;45.302;-122.946;2023-04-07T07:43:02;100430.72;;;17.72;61.06
55460;BME280;41326;45.302;-122.946;2023-04-07T07:45:33;100430.37;;;17.72;61.11
55460;BME280;41326;45.302;-122.946;2023-04-07T07:48:03;100430.02;;;17.68;61.30
55460;BME280;41326;45.302;-122.946;2023-04-07T07:50:34;100430.49;;;17.68;61.33
55460;BME280;41326;45.302;-122.946;2023-04-07T07:53:04;100431.96;;;17.69;61.35
55460;BME280;41326;45.302;-122.946;2023-04-07T07:55:35;100431.96;;;17.67;61.33
55460;BME280;41326;45.302;-122.946;2023-04-07T07:58:05;100431.21;;;17.66;61.29
55460;BME280;41326;45.302;-122.946;2023-04-07T08:00:36;100430.31;;;17.63;61.33
55460;BME280;41326;45.302;-122.946;2023-04-07T08:03:05;100431.42;;;17.62;61.40
55460;BME280;41326;45.302;-122.946;2023-04-07T08:05:36;100431.97;;;17.63;61.38
55460;BME280;41326;45.302;-122.946;2023-04-07T08:08:07;100432.06;;;17.60;61.45
55460;BME280;41326;45.302;-122.946;2023-04-07T08:10:37;100430.97;;;17.59;61.49
55460;BME280;41326;45.302;-122.946;2023-04-07T08:13:08;100430.80;;;17.59;61.46
55460;BME280;41326;45.302;-122.946;2023-04-07T08:15:38;100431.28;;;17.63;61.34
55460;BME280;41326;45.302;-122.946;2023-04-07T08:18:09;100432.29;;;17.58;61.43
55460;BME280;41326;45.302;-122.946;2023-04-07T08:20:39;100428.72;;;17.60;61.23
55460;BME280;41326;45.302;-122.946;2023-04-07T08:23:09;100428.51;;;17.58;61.37
55460;BME280;41326;45.302;-122.946;2023-04-07T08:25:40;100429.15;;;17.59;61.31
55460;BME280;41326;45.302;-122.946;2023-04-07T08:28:09;100426.27;;;17.59;61.52
55460;BME280;41326;45.302;-122.946;2023-04-07T08:30:40;100424.88;;;17.58;61.70
55460;BME280;41326;45.302;-122.946;2023-04-07T08:33:11;100424.98;;;17.57;61.70
55460;BME280;41326;45.302;-122.946;2023-04-07T08:35:41;100425.63;;;17.54;61.81
55460;BME280;41326;45.302;-122.946;2023-04-07T08:38:13;100428.01;;;17.54;61.66
55460;BME280;41326;45.302;-122.946;2023-04-07T08:40:42;100428.87;;;17.55;61.56
55460;BME280;41326;45.302;-122.946;2023-04-07T08:43:13;100426.86;;;17.53;61.64
55460;BME280;41326;45.302;-122.946;2023-04-07T08:45:44;100427.28;;;17.54;61.63
55460;BME280;41326;45.302;-122.946;2023-04-07T08:48:18;100423.95;;;17.54;61.69
55460;BME280;41326;45.302;-122.946;2023-04-07T08:50:45;100428.49;;;17.50;61.86
55460;BME280;41326;45.302;-122.946;2023-04-07T08:53:16;100426.78;;;17.52;61.80
55460;BME280;41326;45.302;-122.946;2023-04-07T08:55:45;100426.96;;;17.55;61.74
55460;BME280;41326;45.302;-122.946;2023-04-07T08:58:15;100423.37;;;17.54;61.79
55460;BME280;41326;45.302;-122.946;2023-04-07T09:00:46;100423.93;;;17.49;61.87
55460;BME280;41326;45.302;-122.946;2023-04-07T09:03:15;100426.04;;;17.49;62.04
55460;BME280;41326;45.302;-122.946;2023-04-07T09:05:45;100428.74;;;17.48;62.16
55460;BME280;41326;45.302;-122.946;2023-04-07T09:08:15;100429.81;;;17.47;62.17
55460;BME280;41326;45.302;-122.946;2023-04-07T09:10:46;100430.01;;;17.50;62.13
55460;BME280;41326;45.302;-122.946;2023-04-07T09:13:16;100430.45;;;17.48;62.26
55460;BME280;41326;45.302;-122.946;2023-04-07T09:15:46;100429.96;;;17.49;62.25
55460;BME280;41326;45.302;-122.946;2023-04-07T09:18:16;100430.75;;;17.44;62.28
55460;BME280;41326;45.302;-122.946;2023-04-07T09:20:55;100427.69;;;17.43;62.36
55460;BME280;41326;45.302;-122.946;2023-04-07T09:23:27;100423.53;;;17.43;62.55
55460;BME280;41326;45.302;-122.946;2023-04-07T09:25:47;100422.90;;;17.42;62.51
55460;BME280;41326;45.302;-122.946;2023-04-07T09:28:17;100423.01;;;17.44;62.47
55460;BME280;41326;45.302;-122.946;2023-04-07T09:30:52;100418.00;;;17.46;62.38
55460;BME280;41326;45.302;-122.946;2023-04-07T09:33:26;100417.23;;;17.44;62.44
55460;BME280;41326;45.302;-122.946;2023-04-07T09:35:53;100418.79;;;17.43;62.38
55460;BME280;41326;45.302;-122.946;2023-04-07T09:38:18;100417.68;;;17.45;62.19
55460;BME280;41326;45.302;-122.946;2023-04-07T09:40:49;100421.33;;;17.43;62.15
55460;BME280;41326;45.302;-122.946;2023-04-07T09:43:21;100422.63;;;17.43;62.30
55460;BME280;41326;45.302;-122.946;2023-04-07T09:45:50;100422.93;;;17.41;62.56
55460;BME280;41326;45.302;-122.946;2023-04-07T09:48:24;100421.88;;;17.41;62.51
55460;BME280;41326;45.302;-122.946;2023-04-07T09:50:51;100427.31;;;17.39;62.50
55460;BME280;41326;45.302;-122.946;2023-04-07T09:53:21;100425.94;;;17.35;62.59
55460;BME280;41326;45.302;-122.946;2023-04-07T09:55:51;100425.89;;;17.38;62.44
55460;BME280;41326;45.302;-122.946;2023-04-07T09:58:22;100425.75;;;17.35;62.34
55460;BME280;41326;45.302;-122.946;2023-04-07T10:00:52;100428.56;;;17.36;62.24
55460;BME280;41326;45.302;-122.946;2023-04-07T10:03:22;100427.98;;;17.37;62.30
55460;BME280;41326;45.302;-122.946;2023-04-07T10:05:53;100427.10;;;17.37;62.35
55460;BME280;41326;45.302;-122.946;2023-04-07T10:08:23;100426.16;;;17.38;62.32
55460;BME280;41326;45.302;-122.946;2023-04-07T10:10:53;100426.78;;;17.36;62.39
55460;BME280;41326;45.302;-122.946;2023-04-07T10:13:24;100425.80;;;17.39;62.26
55460;BME280;41326;45.302;-122.946;2023-04-07T10:15:55;100420.22;;;17.33;62.51
55460;BME280;41326;45.302;-122.946;2023-04-07T10:18:27;100420.81;;;17.35;62.40
55460;BME280;41326;45.302;-122.946;2023-04-07T10:20:56;100421.84;;;17.34;62.45
55460;BME280;41326;45.302;-122.946;2023-04-07T10:23:30;100422.13;;;17.36;62.41
55460;BME280;41326;45.302;-122.946;2023-04-07T10:25:56;100424.88;;;17.35;62.49
55460;BME280;41326;45.302;-122.946;2023-04-07T10:28:26;100421.87;;;17.35;62.49
55460;BME280;41326;45.302;-122.946;2023-04-07T10:30:56;100419.54;;;17.35;62.48
55460;BME280;41326;45.302;-122.946;2023-04-07T10:36:02;100424.77;;;17.31;62.58
55460;BME280;41326;45.302;-122.946;2023-04-07T10:38:27;100423.23;;;17.29;62.63
55460;BME280;41326;45.302;-122.946;2023-04-07T10:40:57;100423.60;;;17.26;62.59
55460;BME280;41326;45.302;-122.946;2023-04-07T10:46:00;100427.95;;;17.28;62.63
55460;BME280;41326;45.302;-122.946;2023-04-07T10:48:28;100429.44;;;17.31;62.57
55460;BME280;41326;45.302;-122.946;2023-04-07T10:53:29;100428.39;;;17.26;62.80
55460;BME280;41326;45.302;-122.946;2023-04-07T10:56:00;100425.19;;;17.25;62.83
55460;BME280;41326;45.302;-122.946;2023-04-07T10:58:31;100418.58;;;17.25;62.77
55460;BME280;41326;45.302;-122.946;2023-04-07T11:03:33;100423.10;;;17.22;62.82
55460;BME280;41326;45.302;-122.946;2023-04-07T11:06:07;100420.80;;;17.23;62.74
55460;BME280;41326;45.302;-122.946;2023-04-07T11:08:37;100412.04;;;17.23;62.73
55460;BME280;41326;45.302;-122.946;2023-04-07T11:11:03;100408.72;;;17.24;62.69
55460;BME280;41326;45.302;-122.946;2023-04-07T11:16:03;100406.16;;;17.20;62.85
55460;BME280;41326;45.302;-122.946;2023-04-07T11:18:33;100407.43;;;17.19;62.84
55460;BME280;41326;45.302;-122.946;2023-04-07T11:21:03;100408.19;;;17.21;62.68
55460;BME280;41326;45.302;-122.946;2023-04-07T11:23:37;100410.35;;;17.23;62.69
55460;BME280;41326;45.302;-122.946;2023-04-07T11:26:06;100414.10;;;17.22;62.72
55460;BME280;41326;45.302;-122.946;2023-04-07T11:28:34;100421.27;;;17.21;62.82
55460;BME280;41326;45.302;-122.946;2023-04-07T11:31:04;100420.87;;;17.21;62.75
55460;BME280;41326;45.302;-122.946;2023-04-07T11:33:36;100419.98;;;17.20;62.71
55460;BME280;41326;45.302;-122.946;2023-04-07T11:36:06;100416.09;;;17.20;62.71
55460;BME280;41326;45.302;-122.946;2023-04-07T11:38:40;100412.75;;;17.19;62.61
55460;BME280;41326;45.302;-122.946;2023-04-07T11:41:12;100414.55;;;17.20;62.53
55460;BME280;41326;45.302;-122.946;2023-04-07T11:43:36;100416.77;;;17.18;62.65
55460;BME280;41326;45.302;-122.946;2023-04-07T11:46:10;100416.85;;;17.16;62.74
55460;BME280;41326;45.302;-122.946;2023-04-07T11:48:39;100413.71;;;17.17;62.70
55460;BME280;41326;45.302;-122.946;2023-04-07T11:53:39;100413.02;;;17.15;62.72
55460;BME280;41326;45.302;-122.946;2023-04-07T11:56:11;100414.39;;;17.14;62.82
55460;BME280;41326;45.302;-122.946;2023-04-07T11:58:45;100414.31;;;17.15;62.69
55460;BME280;41326;45.302;-122.946;2023-04-07T12:01:11;100412.19;;;17.12;62.69
55460;BME280;41326;45.302;-122.946;2023-04-07T12:06:10;100413.81;;;17.13;62.74
55460;BME280;41326;45.302;-122.946;2023-04-07T12:08:44;100410.17;;;17.15;62.71
55460;BME280;41326;45.302;-122.946;2023-04-07T12:11:11;100412.64;;;17.15;62.67
55460;BME280;41326;45.302;-122.946;2023-04-07T12:13:42;100415.40;;;17.10;62.86
55460;BME280;41326;45.302;-122.946;2023-04-07T12:16:11;100413.08;;;17.12;62.81
55460;BME280;41326;45.302;-122.946;2023-04-07T12:18:42;100413.73;;;17.11;62.68
55460;BME280;41326;45.302;-122.946;2023-04-07T12:21:12;100408.38;;;17.08;62.76
55460;BME280;41326;45.302;-122.946;2023-04-07T12:23:44;100405.24;;;17.06;62.91
55460;BME280;41326;45.302;-122.946;2023-04-07T12:26:13;100406.27;;;17.08;62.85
55460;BME280;41326;45.302;-122.946;2023-04-07T12:28:43;100409.29;;;17.06;62.94
55460;BME280;41326;45.302;-122.946;2023-04-07T12:31:14;100411.55;;;17.08;62.86
55460;BME280;41326;45.302;-122.946;2023-04-07T12:33:43;100414.51;;;17.11;62.74
55460;BME280;41326;45.302;-122.946;2023-04-07T12:36:14;100412.44;;;17.09;62.82
55460;BME280;41326;45.302;-122.946;2023-04-07T12:38:44;100418.65;;;17.06;62.71
55460;BME280;41326;45.302;-122.946;2023-04-07T12:41:14;100415.30;;;17.06;62.68
55460;BME280;41326;45.302;-122.946;2023-04-07T12:43:44;100415.75;;;17.06;62.75
55460;BME280;41326;45.302;-122.946;2023-04-07T12:46:15;100415.26;;;17.08;62.59
55460;BME280;41326;45.302;-122.946;2023-04-07T12:48:45;100415.10;;;17.06;62.64
55460;BME280;41326;45.302;-122.946;2023-04-07T12:51:16;100420.05;;;17.01;62.86
55460;BME280;41326;45.302;-122.946;2023-04-07T12:53:45;100420.35;;;16.98;62.93
55460;BME280;41326;45.302;-122.946;2023-04-07T12:56:16;100422.13;;;17.03;62.70
55460;BME280;41326;45.302;-122.946;2023-04-07T12:58:46;100424.26;;;17.05;62.54
55460;BME280;41326;45.302;-122.946;2023-04-07T13:01:16;100426.30;;;17.04;62.53